createdAt,value
2019-05-02T00:01:02.483Z,99804.92
2019-05-02T00:03:41.034Z,99805.00
2019-05-02T00:06:10.326Z,99804.92
2019-05-02T00:08:42.858Z,99804.28
2019-05-02T00:11:14.917Z,99805.26
2019-05-02T00:13:46.884Z,99811.88
2019-05-02T00:16:18.889Z,99806.03
2019-05-02T00:18:51.874Z,99806.03
2019-05-02T00:21:24.039Z,99804.77
2019-05-02T00:23:59.315Z,99801.12
2019-05-02T00:26:30.812Z,99784.72
2019-05-02T00:29:02.909Z,99784.72
2019-05-02T00:31:37.283Z,99793.53
2019-05-02T00:34:10.046Z,99794.50
2019-05-02T00:36:42.905Z,99788.56
2019-05-02T00:39:15.226Z,99790.16
2019-05-02T00:41:47.889Z,99784.84
2019-05-02T00:44:19.876Z,99787.78
2019-05-02T00:46:52.805Z,99785.77
2019-05-02T00:49:24.880Z,99790.81
2019-05-02T00:52:01.272Z,99782.34
2019-05-02T00:54:30.881Z,99765.51
2019-05-02T00:57:03.090Z,99765.51
2019-05-02T00:59:37.715Z,99775.07
2019-05-02T01:02:19.855Z,99772.47
2019-05-02T01:04:51.853Z,99772.47
2019-05-02T01:07:25.601Z,99775.81
2019-05-02T01:09:58.559Z,99772.22
2019-05-02T01:12:30.839Z,99768.39
2019-05-02T01:15:03.435Z,99768.39
2019-05-02T01:17:36.828Z,99749.64
2019-05-02T01:20:09.861Z,99749.64
2019-05-02T01:22:42.326Z,99764.55
2019-05-02T01:25:16.980Z,99765.05
2019-05-02T01:28:12.641Z,99759.67
2019-05-02T01:31:07.516Z,99755.86
2019-05-02T01:33:46.532Z,99762.41
2019-05-02T01:36:22.829Z,99755.92
2019-05-02T01:38:54.921Z,99747.57
2019-05-02T01:41:29.214Z,99754.81
2019-05-02T01:44:01.635Z,99755.98
2019-05-02T01:46:33.897Z,99758.58
2019-05-02T01:49:06.896Z,99749.12
2019-05-02T01:51:41.966Z,99751.13
2019-05-02T01:54:12.838Z,99744.45
2019-05-02T01:56:44.839Z,99744.45
2019-05-02T01:59:17.019Z,99746.86
2019-05-02T02:01:53.210Z,99745.62
2019-05-02T02:04:23.847Z,99741.08
2019-05-02T02:06:55.955Z,99738.58
2019-05-02T02:09:27.887Z,99734.41
2019-05-02T02:11:59.791Z,99735.64
2019-05-02T02:14:32.373Z,99729.64
2019-05-02T02:17:04.874Z,99726.39
2019-05-02T02:19:43.542Z,99721.29
2019-05-02T02:22:33.814Z,99726.48
2019-05-02T02:25:22.656Z,99720.52
2019-05-02T02:27:59.534Z,99725.12
2019-05-02T02:30:28.865Z,99725.12
2019-05-02T02:33:07.517Z,99727.63
2019-05-02T02:35:35.007Z,99723.41
2019-05-02T02:38:07.015Z,99723.41
2019-05-02T02:40:39.333Z,99721.53
2019-05-02T02:43:32.434Z,99722.89
2019-05-02T02:46:03.283Z,99724.25
2019-05-02T02:48:40.745Z,99723.81
2019-05-02T02:51:22.253Z,99723.41
2019-05-02T02:53:44.873Z,99723.69
2019-05-02T02:56:16.865Z,99723.69
2019-05-02T02:58:48.821Z,99721.86
2019-05-02T03:01:28.336Z,99721.73
2019-05-02T03:03:54.880Z,99717.13
2019-05-02T03:06:26.871Z,99717.13
2019-05-02T03:08:59.322Z,99719.27
2019-05-02T03:11:39.319Z,99718.06
2019-05-02T03:14:18.589Z,99721.64
2019-05-02T03:16:50.891Z,99702.09
2019-05-02T03:19:23.144Z,99702.09
2019-05-02T03:22:01.158Z,99719.02
2019-05-02T03:24:29.951Z,99717.20
2019-05-02T03:27:02.328Z,99720.69
2019-05-02T03:29:41.108Z,99718.92
2019-05-02T03:32:17.028Z,99716.48
2019-05-02T03:34:48.895Z,99718.27
2019-05-02T03:37:18.349Z,99718.27
2019-05-02T03:39:57.413Z,99712.70
2019-05-02T03:42:25.002Z,99711.61
2019-05-02T03:45:04.089Z,99711.61
2019-05-02T03:47:36.831Z,99717.39
2019-05-02T03:50:08.622Z,99705.92
2019-05-02T03:52:43.440Z,99701.84
2019-05-02T03:55:13.329Z,99701.84
2019-05-02T03:57:45.890Z,99714.68
2019-05-02T04:00:21.376Z,99710.72
2019-05-02T04:02:59.193Z,99716.30
2019-05-02T04:05:26.831Z,99713.45
2019-05-02T04:07:58.816Z,99713.45
2019-05-02T04:11:26.347Z,99710.34
2019-05-02T04:13:58.875Z,99720.88
2019-05-02T04:16:31.811Z,99721.00
2019-05-02T04:19:05.040Z,99722.00
2019-05-02T04:21:37.613Z,99721.34
2019-05-02T04:24:15.036Z,99704.65
2019-05-02T04:26:51.997Z,99704.65
2019-05-02T04:29:15.794Z,99713.77
2019-05-02T04:31:47.765Z,99714.42
2019-05-02T04:34:18.617Z,99715.64
2019-05-02T04:37:00.018Z,99711.70
2019-05-02T04:39:23.751Z,99711.70
2019-05-02T04:41:54.600Z,99714.86
2019-05-02T04:44:29.863Z,99721.48
2019-05-02T04:47:10.024Z,99721.48
2019-05-02T04:49:35.982Z,99721.08
2019-05-02T04:52:11.287Z,99720.77
2019-05-02T04:54:40.269Z,99717.19
2019-05-02T04:57:11.854Z,99712.66
2019-05-02T04:59:43.868Z,99713.63
2019-05-02T05:02:31.073Z,99716.69
2019-05-02T05:04:58.108Z,99722.97
2019-05-02T05:07:31.043Z,99717.70
2019-05-02T05:10:03.634Z,99717.70
2019-05-02T05:12:39.961Z,99719.02
2019-05-02T05:15:13.342Z,99719.45
2019-05-02T05:17:42.746Z,99722.64
2019-05-02T05:20:15.849Z,99718.06
2019-05-02T05:22:47.934Z,99722.30
2019-05-02T05:25:27.680Z,99722.12
2019-05-02T05:28:05.683Z,99729.69
2019-05-02T05:30:37.001Z,99730.56
2019-05-02T05:33:07.640Z,99733.06
2019-05-02T05:35:43.216Z,99733.72
2019-05-02T05:38:13.297Z,99724.06
2019-05-02T05:40:44.938Z,99731.43
2019-05-02T05:43:20.348Z,99739.28
2019-05-02T05:45:56.218Z,99733.19
2019-05-02T05:48:23.700Z,99740.20
2019-05-02T05:50:54.507Z,99740.33
2019-05-02T05:53:28.064Z,99738.84
2019-05-02T05:56:02.482Z,99740.08
2019-05-02T05:58:33.311Z,99737.92
2019-05-02T06:01:09.336Z,99734.42
2019-05-02T06:03:41.976Z,99737.48
2019-05-02T06:06:14.887Z,99737.48
2019-05-02T06:08:49.195Z,99732.05
2019-05-02T06:11:20.000Z,99732.75
2019-05-02T06:13:52.753Z,99731.30
2019-05-02T06:16:24.649Z,99725.68
2019-05-02T06:18:56.333Z,99724.59
2019-05-02T06:21:27.995Z,99724.59
2019-05-02T06:23:59.732Z,99725.42
2019-05-02T06:26:30.645Z,99731.43
2019-05-02T06:29:02.303Z,99726.52
2019-05-02T06:31:38.233Z,99721.59
2019-05-02T06:34:08.407Z,99725.50
2019-05-02T06:36:39.927Z,99725.50
2019-05-02T06:39:11.261Z,99729.36
2019-05-02T06:41:42.855Z,99726.20
2019-05-02T06:44:18.435Z,99726.97
2019-05-02T06:46:48.298Z,99722.30
2019-05-02T06:49:24.325Z,99718.17
2019-05-02T06:51:56.358Z,99719.06
2019-05-02T06:54:26.755Z,99720.77
2019-05-02T06:56:57.459Z,99719.98
2019-05-02T06:59:29.310Z,99717.80
2019-05-02T07:02:01.312Z,99722.43
2019-05-02T07:04:33.644Z,99721.41
2019-05-02T07:07:04.445Z,99722.77
2019-05-02T07:09:41.088Z,99722.77
2019-05-02T07:12:14.281Z,99720.27
2019-05-02T07:14:45.793Z,99722.62
2019-05-02T07:17:32.280Z,99716.00
2019-05-02T07:20:03.903Z,99712.30
2019-05-02T07:22:38.618Z,99712.30
2019-05-02T07:25:11.313Z,99711.00
2019-05-02T07:27:42.957Z,99711.00
2019-05-02T07:30:14.876Z,99719.28
2019-05-02T07:32:46.771Z,99717.58
2019-05-02T07:35:19.137Z,99721.66
2019-05-02T07:37:50.793Z,99728.72
2019-05-02T07:40:22.456Z,99725.99
2019-05-02T07:42:54.628Z,99721.36
2019-05-02T07:45:26.779Z,99714.45
2019-05-02T07:48:01.356Z,99714.45
2019-05-02T07:50:31.750Z,99723.76
2019-05-02T07:53:04.450Z,99722.52
2019-05-02T07:55:40.647Z,99719.27
2019-05-02T07:58:09.773Z,99718.96
2019-05-02T08:00:40.619Z,99706.06
2019-05-02T08:03:12.790Z,99701.80
2019-05-02T08:05:44.749Z,99701.80
2019-05-02T08:08:15.510Z,99714.72
2019-05-02T08:10:47.316Z,99707.98
2019-05-02T08:13:19.462Z,99707.98
2019-05-02T08:15:52.413Z,99703.23
2019-05-02T08:18:25.247Z,99708.62
2019-05-02T08:20:57.703Z,99708.62
2019-05-02T08:23:28.618Z,99703.94
2019-05-02T08:26:00.330Z,99702.87
2019-05-02T08:28:46.950Z,99702.87
2019-05-02T08:31:18.912Z,99708.21
2019-05-02T08:33:51.378Z,99710.17
2019-05-02T08:36:23.347Z,99710.17
2019-05-02T08:38:55.493Z,99706.25
2019-05-02T08:41:27.729Z,99700.64
2019-05-02T08:43:59.794Z,99700.64
2019-05-02T08:46:31.579Z,99700.11
2019-05-02T08:49:03.306Z,99697.73
2019-05-02T08:51:34.831Z,99697.73
2019-05-02T08:54:06.470Z,99697.25
2019-05-02T08:56:38.297Z,99698.27
2019-05-02T08:59:09.817Z,99690.36
2019-05-02T09:01:44.729Z,99688.36
2019-05-02T09:04:14.800Z,99683.55
2019-05-02T09:06:46.457Z,99683.48
2019-05-02T09:09:22.605Z,99681.70
2019-05-02T09:12:07.115Z,99679.20
2019-05-02T09:14:25.293Z,99671.86
2019-05-02T09:17:00.377Z,99668.38
2019-05-02T09:19:34.518Z,99668.13
2019-05-02T09:22:07.634Z,99668.69
2019-05-02T09:24:38.402Z,99665.92
2019-05-02T09:27:11.799Z,99662.48
2019-05-02T09:29:45.938Z,99659.61
2019-05-02T09:32:22.770Z,99651.92
2019-05-02T09:34:51.834Z,99661.50
2019-05-02T09:37:24.372Z,99653.97
2019-05-02T09:39:56.062Z,99657.03
2019-05-02T09:42:27.765Z,99650.30
2019-05-02T09:44:58.596Z,99648.86
2019-05-02T09:47:33.146Z,99640.31
2019-05-02T09:50:13.057Z,99640.31
2019-05-02T09:52:44.725Z,99636.11
2019-05-02T09:55:17.441Z,99636.04
2019-05-02T09:57:49.304Z,99628.58
2019-05-02T10:00:32.359Z,99623.70
2019-05-02T10:03:03.748Z,99619.22
2019-05-02T10:05:34.457Z,99619.22
2019-05-02T10:08:08.088Z,99614.80
2019-05-02T10:10:44.239Z,99610.41
2019-05-02T10:13:14.310Z,99614.16
2019-05-02T10:15:45.997Z,99605.37
2019-05-02T10:18:19.643Z,99604.02
2019-05-02T10:20:52.430Z,99606.42
2019-05-02T10:23:23.665Z,99599.06
2019-05-02T10:25:54.434Z,99593.20
2019-05-02T10:28:26.312Z,99584.09
2019-05-02T10:30:57.968Z,99591.44
2019-05-02T10:33:33.669Z,99580.31
2019-05-02T10:36:03.782Z,99573.50
2019-05-02T10:38:34.471Z,99574.77
2019-05-02T10:41:06.328Z,99574.14
2019-05-02T10:43:38.303Z,99571.86
2019-05-02T10:46:37.723Z,99574.35
2019-05-02T10:49:16.261Z,99575.30
2019-05-02T10:51:49.592Z,99562.81
2019-05-02T10:54:23.090Z,99562.62
2019-05-02T10:56:55.059Z,99559.06
2019-05-02T10:59:26.766Z,99560.62
2019-05-02T11:02:10.010Z,99552.03
2019-05-02T11:04:46.305Z,99555.27
2019-05-02T11:07:22.789Z,99556.10
2019-05-02T11:09:52.568Z,99551.40
2019-05-02T11:12:41.998Z,99543.96
2019-05-02T11:15:26.851Z,99546.58
2019-05-02T11:17:58.772Z,99549.19
2019-05-02T11:20:31.861Z,99547.51
2019-05-02T11:23:03.730Z,99548.04
2019-05-02T11:25:35.732Z,99551.83
2019-05-02T11:28:07.200Z,99542.48
2019-05-02T11:30:41.956Z,99541.22
2019-05-02T11:33:13.760Z,99531.16
2019-05-02T11:35:49.116Z,99531.58
2019-05-02T11:38:18.419Z,99534.53
2019-05-02T11:40:52.058Z,99533.17
2019-05-02T11:43:24.306Z,99525.93
2019-05-02T11:46:02.536Z,99529.59
2019-05-02T11:48:31.881Z,99521.54
2019-05-02T11:51:07.418Z,99524.88
2019-05-02T11:53:36.809Z,99521.73
2019-05-02T11:56:10.999Z,99529.59
2019-05-02T11:58:48.072Z,99522.78
2019-05-02T12:01:19.303Z,99522.91
2019-05-02T12:03:52.468Z,99525.20
2019-05-02T12:06:24.398Z,99516.17
2019-05-02T12:08:56.066Z,99516.17
2019-05-02T12:11:27.790Z,99517.62
2019-05-02T12:13:59.373Z,99524.35
2019-05-02T12:16:32.276Z,99520.05
2019-05-02T12:19:11.784Z,99513.66
2019-05-02T12:21:39.342Z,99513.16
2019-05-02T12:24:12.686Z,99514.92
2019-05-02T12:26:46.548Z,99522.69
2019-05-02T12:29:21.736Z,99516.61
2019-05-02T12:31:56.415Z,99521.54
2019-05-02T12:34:26.423Z,99516.07
2019-05-02T12:36:58.048Z,99520.69
2019-05-02T12:39:31.630Z,99523.93
2019-05-02T12:42:03.826Z,99527.59
2019-05-02T12:44:35.742Z,99527.93
2019-05-02T12:47:06.554Z,99527.61
2019-05-02T12:49:38.298Z,99526.45
2019-05-02T12:52:09.866Z,99526.45
2019-05-02T12:54:41.750Z,99529.50
2019-05-02T12:57:13.499Z,99524.35
2019-05-02T12:59:45.297Z,99521.52
2019-05-02T13:02:25.575Z,99516.70
2019-05-02T13:04:57.737Z,99527.61
2019-05-02T13:07:28.442Z,99527.61
2019-05-02T13:10:02.221Z,99526.66
2019-05-02T13:12:36.318Z,99521.72
2019-05-02T13:15:08.292Z,99518.18
2019-05-02T13:17:45.975Z,99521.00
2019-05-02T13:20:15.442Z,99526.14
2019-05-02T13:23:05.419Z,99526.14
2019-05-02T13:25:37.431Z,99518.48
2019-05-02T13:28:09.058Z,99521.94
2019-05-02T13:30:51.639Z,99522.80
2019-05-02T13:33:37.755Z,99523.41
2019-05-02T13:36:10.265Z,99524.55
2019-05-02T13:38:42.335Z,99515.66
2019-05-02T13:41:14.336Z,99512.31
2019-05-02T13:43:48.338Z,99516.80
2019-05-02T13:46:23.307Z,99512.29
2019-05-02T13:48:55.064Z,99513.87
2019-05-02T13:51:26.745Z,99522.78
2019-05-02T13:54:02.257Z,99515.33
2019-05-02T13:56:53.031Z,99513.97
2019-05-02T13:59:24.753Z,99512.82
2019-05-02T14:01:55.659Z,99510.63
2019-05-02T14:04:26.429Z,99506.73
2019-05-02T14:06:58.062Z,99506.73
2019-05-02T14:09:58.046Z,99498.89
2019-05-02T14:12:44.488Z,99493.22
2019-05-02T14:15:17.303Z,99493.22
2019-05-02T14:17:48.897Z,99502.22
2019-05-02T14:20:22.710Z,99494.55
2019-05-02T14:22:54.609Z,99497.28
2019-05-02T14:25:26.337Z,99480.79
2019-05-02T14:27:58.289Z,99480.79
2019-05-02T14:30:37.042Z,99476.50
2019-05-02T14:33:06.990Z,99477.86
2019-05-02T14:35:38.744Z,99479.42
2019-05-02T14:38:13.096Z,99481.02
2019-05-02T14:41:05.409Z,99476.50
2019-05-02T14:43:54.019Z,99466.32
2019-05-02T14:46:34.297Z,99470.84
2019-05-02T14:49:02.869Z,99460.77
2019-05-02T14:51:36.637Z,99459.30
2019-05-02T14:54:09.298Z,99456.28
2019-05-02T14:57:05.735Z,99457.94
2019-05-02T14:59:37.363Z,99455.31
2019-05-02T15:02:13.153Z,99453.02
2019-05-02T15:04:48.828Z,99449.96
2019-05-02T15:07:24.807Z,99448.50
2019-05-02T15:09:57.270Z,99446.41
2019-05-02T15:12:27.321Z,99446.41
2019-05-02T15:15:00.053Z,99439.69
2019-05-02T15:17:33.645Z,99444.41
2019-05-02T15:20:07.329Z,99439.59
2019-05-02T15:22:39.811Z,99435.93
2019-05-02T15:25:15.849Z,99432.70
2019-05-02T15:27:49.953Z,99419.51
2019-05-02T15:30:21.322Z,99419.51
2019-05-02T15:33:04.262Z,99426.52
2019-05-02T15:36:03.183Z,99420.77
2019-05-02T15:38:32.403Z,99409.36
2019-05-02T15:41:07.823Z,99409.36
2019-05-02T15:43:39.367Z,99406.87
2019-05-02T15:46:15.778Z,99403.61
2019-05-02T15:48:46.850Z,99404.55
2019-05-02T15:51:19.299Z,99404.55
2019-05-02T15:54:08.510Z,99403.08
2019-05-02T15:56:59.974Z,99401.95
2019-05-02T15:59:44.483Z,99398.06
2019-05-02T16:02:17.504Z,99391.87
2019-05-02T16:04:47.851Z,99383.20
2019-05-02T16:07:22.344Z,99391.65
2019-05-02T16:09:59.245Z,99386.06
2019-05-02T16:12:32.215Z,99379.64
2019-05-02T16:15:07.204Z,99385.73
2019-05-02T16:17:35.736Z,99382.31
2019-05-02T16:20:13.789Z,99383.14
2019-05-02T16:23:05.323Z,99375.40
2019-05-02T16:25:38.328Z,99377.79
2019-05-02T16:28:12.702Z,99375.59
2019-05-02T16:30:47.604Z,99366.25
2019-05-02T16:33:20.847Z,99367.09
2019-05-02T16:35:54.566Z,99363.29
2019-05-02T16:38:26.740Z,99371.08
2019-05-02T16:41:02.276Z,99362.89
2019-05-02T16:43:34.822Z,99365.19
2019-05-02T16:46:11.903Z,99373.80
2019-05-02T16:48:42.666Z,99376.86
2019-05-02T16:51:30.029Z,99372.97
2019-05-02T16:53:48.314Z,99372.88
2019-05-02T16:56:22.278Z,99369.52
2019-05-02T16:58:54.856Z,99367.13
2019-05-02T17:01:28.570Z,99367.42
2019-05-02T17:04:05.197Z,99363.86
2019-05-02T17:06:40.313Z,99363.86
2019-05-02T17:09:24.152Z,99367.63
2019-05-02T17:11:57.311Z,99365.76
2019-05-02T17:14:31.700Z,99368.05
2019-05-02T17:17:03.921Z,99370.98
2019-05-02T17:19:36.800Z,99366.69
2019-05-02T17:22:09.323Z,99368.78
2019-05-02T17:24:41.921Z,99367.42
2019-05-02T17:27:20.519Z,99372.58
2019-05-02T17:29:54.264Z,99368.05
2019-05-02T17:32:28.824Z,99368.05
2019-05-02T17:35:02.719Z,99371.51
2019-05-02T17:37:34.415Z,99368.82
2019-05-02T17:40:06.928Z,99376.46
2019-05-02T17:42:44.476Z,99383.58
2019-05-02T17:45:17.390Z,99383.28
2019-05-02T17:47:49.875Z,99383.28
2019-05-02T17:50:35.704Z,99385.27
2019-05-02T17:53:07.283Z,99383.37
2019-05-02T17:55:40.784Z,99391.78
2019-05-02T17:58:16.597Z,99383.81
2019-05-02T18:01:00.726Z,99383.81
2019-05-02T18:03:35.427Z,99382.95
2019-05-02T18:06:07.609Z,99382.95
2019-05-02T18:08:41.738Z,99384.34
2019-05-02T18:11:14.549Z,99380.55
2019-05-02T18:13:47.331Z,99378.55
2019-05-02T18:16:21.663Z,99378.55
2019-05-02T18:18:53.469Z,99378.98
2019-05-02T18:21:28.699Z,99381.28
2019-05-02T18:24:02.450Z,99374.60
2019-05-02T18:26:33.879Z,99378.25
2019-05-02T18:29:06.935Z,99378.25
2019-05-02T18:31:47.131Z,99376.89
2019-05-02T18:34:23.684Z,99377.95
2019-05-02T18:36:49.537Z,99368.95
2019-05-02T18:39:22.208Z,99362.23
2019-05-02T18:41:55.107Z,99362.23
2019-05-02T18:44:27.924Z,99374.16
2019-05-02T18:47:02.290Z,99372.70
2019-05-02T18:49:34.522Z,99375.22
2019-05-02T18:52:07.229Z,99369.58
2019-05-02T18:54:43.928Z,99370.11
2019-05-02T18:57:17.198Z,99371.23
2019-05-02T18:59:51.875Z,99371.77
2019-05-02T19:02:26.320Z,99381.53
2019-05-02T19:04:56.270Z,99372.73
2019-05-02T19:07:35.645Z,99371.37
2019-05-02T19:10:07.422Z,99364.25
2019-05-02T19:12:41.920Z,99364.25
2019-05-02T19:15:15.492Z,99373.03
2019-05-02T19:17:50.191Z,99372.33
2019-05-02T19:21:05.017Z,99372.42
2019-05-02T19:23:38.103Z,99373.59
2019-05-02T19:26:14.656Z,99374.95
2019-05-02T19:29:14.034Z,99361.32
2019-05-02T19:31:52.490Z,99361.32
2019-05-02T19:34:26.783Z,99361.81
2019-05-02T19:37:03.105Z,99370.95
2019-05-02T19:39:32.862Z,99369.30
2019-05-02T19:42:04.882Z,99367.99
2019-05-02T19:44:37.995Z,99366.97
2019-05-02T19:47:15.718Z,99374.94
2019-05-02T19:49:47.390Z,99371.04
2019-05-02T19:52:18.865Z,99375.32
2019-05-02T19:54:51.883Z,99375.32
2019-05-02T19:57:26.424Z,99382.46
2019-05-02T20:00:02.832Z,99385.38
2019-05-02T20:02:37.507Z,99385.47
2019-05-02T20:05:16.367Z,99385.47
2019-05-02T20:07:45.106Z,99383.70
2019-05-02T20:10:19.688Z,99386.84
2019-05-02T20:12:52.762Z,99381.70
2019-05-02T20:15:27.041Z,99381.70
2019-05-02T20:18:04.541Z,99395.53
2019-05-02T20:21:23.269Z,99399.52
2019-05-02T20:23:51.775Z,99400.38
2019-05-02T20:26:24.272Z,99402.88
2019-05-02T20:28:56.940Z,99410.00
2019-05-02T20:31:29.565Z,99411.99
2019-05-02T20:34:02.524Z,99412.72
2019-05-02T20:36:33.709Z,99419.00
2019-05-02T20:39:07.518Z,99415.53
2019-05-02T20:41:41.948Z,99420.58
2019-05-02T20:44:14.840Z,99418.90
2019-05-02T20:46:47.342Z,99424.22
2019-05-02T20:49:20.900Z,99426.42
2019-05-02T20:51:54.080Z,99428.20
2019-05-02T20:54:26.863Z,99437.31
2019-05-02T20:56:59.339Z,99433.64
2019-05-02T20:59:32.301Z,99420.67
2019-05-02T21:02:04.901Z,99427.48
2019-05-02T21:04:37.289Z,99424.22
2019-05-02T21:07:22.105Z,99422.34
2019-05-02T21:10:12.501Z,99415.84
2019-05-02T21:12:43.714Z,99419.61
2019-05-02T21:15:14.757Z,99415.01
2019-05-02T21:17:46.855Z,99419.39
2019-05-02T21:20:18.880Z,99417.43
2019-05-02T21:22:52.780Z,99422.02
2019-05-02T21:25:24.840Z,99426.84
2019-05-02T21:27:58.332Z,99425.48
2019-05-02T21:30:32.233Z,99422.86
2019-05-02T21:33:04.832Z,99422.03
2019-05-02T21:35:36.853Z,99424.65
2019-05-02T21:38:09.345Z,99423.17
2019-05-02T21:40:42.299Z,99420.54
2019-05-02T21:43:15.041Z,99424.13
2019-05-02T21:45:47.046Z,99429.87
2019-05-02T21:48:19.379Z,99426.73
2019-05-02T21:50:57.681Z,99433.84
2019-05-02T21:53:54.201Z,99421.19
2019-05-02T21:56:21.904Z,99421.19
2019-05-02T21:59:07.322Z,99423.37
2019-05-02T22:02:02.407Z,99433.53
2019-05-02T22:04:35.323Z,99429.46
2019-05-02T22:07:08.015Z,99425.79
2019-05-02T22:09:41.646Z,99420.02
2019-05-02T22:12:16.373Z,99417.09
2019-05-02T22:14:48.907Z,99420.77
2019-05-02T22:17:21.588Z,99421.91
2019-05-02T22:19:53.884Z,99416.79
2019-05-02T22:22:25.876Z,99419.28
2019-05-02T22:24:58.293Z,99418.56
2019-05-02T22:27:32.466Z,99419.09
2019-05-02T22:30:04.895Z,99422.77
2019-05-02T22:32:37.040Z,99421.41
2019-05-02T22:35:09.865Z,99429.46
2019-05-02T22:37:43.584Z,99429.46
2019-05-02T22:40:16.785Z,99416.27
2019-05-02T22:42:48.123Z,99416.27
2019-05-02T22:45:21.767Z,99428.84
2019-05-02T22:47:53.863Z,99425.37
2019-05-02T22:50:25.901Z,99435.42
2019-05-02T22:52:58.497Z,99437.63
2019-05-02T22:55:31.997Z,99426.32
2019-05-02T22:58:04.364Z,99433.95
2019-05-02T23:00:36.865Z,99427.45
2019-05-02T23:03:09.024Z,99433.55
2019-05-02T23:05:42.151Z,99426.62
2019-05-02T23:08:15.019Z,99424.73
2019-05-02T23:10:46.862Z,99430.59
2019-05-02T23:13:18.884Z,99436.48
2019-05-02T23:15:52.159Z,99434.79
2019-05-02T23:18:24.905Z,99427.34
2019-05-02T23:20:56.873Z,99433.55
2019-05-02T23:23:29.945Z,99426.20
2019-05-02T23:26:22.439Z,99426.09
2019-05-02T23:28:55.337Z,99417.52
2019-05-02T23:31:28.337Z,99417.52
2019-05-02T23:34:02.030Z,99424.94
2019-05-02T23:36:35.326Z,99429.57
2019-05-02T23:39:09.924Z,99431.04
2019-05-02T23:41:42.913Z,99429.34
2019-05-02T23:44:15.045Z,99435.02
2019-05-02T23:46:47.542Z,99436.56
2019-05-02T23:49:21.858Z,99434.15
2019-05-02T23:51:52.792Z,99434.80
2019-05-02T23:54:27.053Z,99436.66
2019-05-02T23:56:59.081Z,99436.77
2019-05-02T23:59:31.818Z,99443.27
